Date,TemperatureHighF,TemperatureAvgF,TemperatureLowF,DewpointHighF,DewpointAvgF,DewpointLowF,HumidityHigh,HumidityAvg,HumidityLow,PressureMaxIn,PressureMinIn,WindSpeedMaxMPH,WindSpeedAvgMPH,GustSpeedMaxMPH,PrecipitationSumIn
2013-3-1,68.3,55.0,41.7,22.3,17.4,11.4,33,23,14,30.30,30.14,29,5,29,0.00
2013-3-2,71.0,59.4,45.6,30.7,22.9,17.8,41,26,15,30.19,29.96,32,7,32,0.00
2013-3-3,62.2,54.5,42.2,38.8,28.4,20.1,85,39,23,29.96,29.77,39,12,39,0.00
2013-3-4,65.3,50.3,35.7,42.5,37.6,31.3,93,66,30,29.96,29.82,19,4,19,0.00
2013-3-5,61.1,51.9,44.2,44.0,39.6,34.9,92,64,42,29.96,29.80,52,12,52,0.00
2013-3-6,51.4,45.1,39.7,40.1,38.4,34.8,90,78,64,29.95,29.76,48,15,48,0.00
2013-3-7,43.7,42.2,39.3,40.3,37.9,33.6,92,85,75,29.85,29.73,36,11,36,0.27
2013-3-8,42.6,37.8,34.0,36.0,33.6,27.8,93,85,64,29.91,29.61,36,12,36,0.30
2013-3-9,54.7,43.4,33.8,37.8,32.3,28.0,94,68,37,30.16,29.91,24,6,24,0.00
2013-3-10,60.9,47.9,35.1,30.6,21.7,14.4,82,41,17,30.27,30.11,23,5,23,0.00
2013-3-11,70.3,54.9,41.1,27.1,17.9,9.9,41,25,11,30.15,29.95,14,3,14,0.00
2013-3-12,74.8,59.6,45.9,31.9,22.2,16.8,40,25,14,30.02,29.91,19,3,19,0.00
2013-3-13,79.0,63.9,49.7,38.2,26.5,21.4,42,26,12,30.05,29.93,19,3,19,0.00
2013-3-14,81.3,66.5,51.2,38.9,31.7,25.8,45,29,15,30.00,29.86,21,4,21,0.00
2013-3-15,76.0,65.0,54.0,41.8,33.6,24.5,58,33,18,29.90,29.71,41,8,41,0.00
2013-3-16,76.8,61.3,48.3,44.3,30.6,21.8,61,34,14,29.79,29.69,24,5,24,0.00
2013-3-17,74.0,57.4,44.9,44.5,31.6,8.4,76,43,11,29.84,29.74,21,5,21,0.00
2013-3-18,71.3,54.6,41.4,47.6,36.3,20.0,88,56,15,29.90,29.79,20,4,20,0.00
2013-3-19,73.0,57.1,45.7,46.8,39.0,29.2,92,57,21,29.94,29.86,32,6,32,0.00
2013-3-20,65.5,56.2,47.5,48.4,43.6,37.3,82,64,45,29.93,29.81,26,6,26,0.00
2013-3-21,71.3,55.5,43.4,45.2,38.9,24.0,80,57,18,29.81,29.64,25,6,25,0.00
2013-3-22,69.3,53.0,40.2,42.6,25.1,-2.7,77,41,6,29.81,29.67,26,5,26,0.00
2013-3-23,68.0,52.5,37.7,31.1,20.3,6.7,52,31,10,29.93,29.80,22,4,22,0.00
2013-3-24,69.8,55.4,41.1,28.3,19.8,14.4,45,27,13,29.92,29.78,18,4,18,0.00
2013-3-25,69.0,59.6,46.0,39.9,29.9,19.8,51,33,17,29.84,29.73,37,8,37,0.00
2013-3-26,65.8,58.2,47.7,42.3,33.7,22.0,80,42,25,29.78,29.68,32,10,32,0.00
2013-3-27,63.2,53.7,44.9,46.0,41.7,37.6,92,66,43,29.88,29.73,41,9,41,0.00
2013-3-28,71.0,55.7,44.1,48.7,43.5,36.3,91,67,31,29.93,29.85,34,6,34,0.00
2013-3-29,71.3,60.0,45.7,45.7,39.5,26.5,85,51,21,29.96,29.87,32,6,32,0.00
2013-3-30,68.5,60.3,53.1,47.2,38.6,17.4,78,46,20,29.92,29.82,39,11,39,0.00
2013-3-31,58.7,53.4,47.8,46.3,39.5,17.4,84,61,21,29.91,29.84,39,13,39,0.00